Jp Tsubaki — JD2817 — position and weather

sailwx.info

Track history (hours):
 
Tides and Currents Weather Stations Pressure Air Temp Water Temp Dewpoint Dewpoint Depression Visibility Wind Speed Wind Dir Waves Ship Positions

Jp Tsubaki

Last reported at 2014-Oct-24 12:33 UTC. Time now 2014-Oct-24 12:53 UTC.
Position N 35°23' E 139°41'.

Length 115 m; draft 6.5 m.

Type: Cargo ship. MMSI: 431000734.

Date/timePositionNaut miles runAvg speedWind from/ knotsBaromVisibWave heightAir tempDewpointWater temp
2014-Oct-24 12:33N 35°23' E 139°41'8 7.9
2014-Oct-24 11:33N 35°30' E 139°46'2 2.3
2014-Oct-24 10:31N 35°30' E 139°43'0 0.0
2014-Oct-24 09:31N 35°30' E 139°43'0 0.0
2014-Oct-24 08:28N 35°30' E 139°43'0 0.0
2014-Oct-24 07:31N 35°30' E 139°43'0 0.0
2014-Oct-24 06:31N 35°30' E 139°43'0 0.0
2014-Oct-24 05:31N 35°30' E 139°43'0 0.0
2014-Oct-24 04:31N 35°30' E 139°43'0 0.0
2014-Oct-24 03:31N 35°30' E 139°43'0 0.0
2014-Oct-24 02:31N 35°30' E 139°43'0 0.0
2014-Oct-24 01:31N 35°30' E 139°43'0 0.0
2014-Oct-24 00:31N 35°30' E 139°43'0 0.0
2014-Oct-23 23:31N 35°30' E 139°43'3 2.7
2014-Oct-23 22:34N 35°27' E 139°43'5 5.2
2014-Oct-23 21:32N 35°22' E 139°44'0 0.0
2014-Oct-23 20:32N 35°22' E 139°44'0 0.0
2014-Oct-23 19:32N 35°22' E 139°44'0 0.0
2014-Oct-23 18:29N 35°22' E 139°44'0 0.0
2014-Oct-23 17:32N 35°22' E 139°44'0 0.0
2014-Oct-23 16:32N 35°22' E 139°44'0 0.0
2014-Oct-23 15:29N 35°22' E 139°44'0 0.0
2014-Oct-23 14:29N 35°22' E 139°44'0 0.0
2014-Oct-23 13:32N 35°22' E 139°44'5 5.0
2014-Oct-23 12:33N 35°24' E 139°39'0 0.1
2014-Oct-23 11:32N 35°24' E 139°39'0 0.0
2014-Oct-23 10:32N 35°24' E 139°39'0 0.0
2014-Oct-23 09:32N 35°24' E 139°39'0 0.0
2014-Oct-23 08:32N 35°24' E 139°39'0 0.0
2014-Oct-23 07:32N 35°24' E 139°39'0 0.0
2014-Oct-23 06:32N 35°24' E 139°39'0 0.0
2014-Oct-23 05:32N 35°24' E 139°39'1 1.2
2014-Oct-23 04:33N 35°24' E 139°40'0 0.0
2014-Oct-23 03:33N 35°24' E 139°40'0 0.0
2014-Oct-23 02:33N 35°24' E 139°40'0 0.0
2014-Oct-23 01:33N 35°24' E 139°40'0 0.0
2014-Oct-23 00:33N 35°24' E 139°40'0 0.0
2014-Oct-22 23:33N 35°24' E 139°40'0 0.0
2014-Oct-22 22:33N 35°24' E 139°40'2 1.6
2014-Oct-22 21:33N 35°23' E 139°41'2 2.3
2014-Oct-22 20:33N 35°22' E 139°44'0 0.0
2014-Oct-22 19:30N 35°22' E 139°44'0 0.0
2014-Oct-22 18:33N 35°22' E 139°44'0 0.0
2014-Oct-22 17:33N 35°22' E 139°44'0 0.0
2014-Oct-22 16:33N 35°22' E 139°44'0 0.0
2014-Oct-22 15:33N 35°22' E 139°44'0 0.0
2014-Oct-22 14:33N 35°22' E 139°44'0 0.0
2014-Oct-22 13:33N 35°22' E 139°44'5 4.8
2014-Oct-22 12:34N 35°24' E 139°39'0 0.0
2014-Oct-22 11:32N 35°24' E 139°39'0 0.0
2014-Oct-22 10:32N 35°24' E 139°39'0 0.0
2014-Oct-22 09:32N 35°24' E 139°39'0 0.0
2014-Oct-22 08:32N 35°24' E 139°39'0 0.0
2014-Oct-22 07:32N 35°24' E 139°39'0 0.0
2014-Oct-22 06:32N 35°24' E 139°39'0 0.0
2014-Oct-22 05:26N 35°24' E 139°39'0 0.1
2014-Oct-22 04:33N 35°24' E 139°38'1 1.2
2014-Oct-22 03:32N 35°24' E 139°40'0 0.0
2014-Oct-22 02:32N 35°24' E 139°40'0 0.0
2014-Oct-22 01:32N 35°24' E 139°40'0 0.0
2014-Oct-22 00:32N 35°24' E 139°40'0 0.0
2014-Oct-21 23:32N 35°24' E 139°40'0 0.0
2014-Oct-21 22:32N 35°24' E 139°40'1 1.4
2014-Oct-21 21:33N 35°23' E 139°41'3 2.6
2014-Oct-21 20:32N 35°22' E 139°44'0 0.0
2014-Oct-21 19:32N 35°22' E 139°44'0 0.0
2014-Oct-21 18:32N 35°22' E 139°44'0 0.0
2014-Oct-21 17:32N 35°22' E 139°44'0 0.0
2014-Oct-21 16:32N 35°22' E 139°44'0 0.1
2014-Oct-21 15:32N 35°22' E 139°44'0 0.0
2014-Oct-21 14:32N 35°22' E 139°44'0 0.0
2014-Oct-21 13:32N 35°22' E 139°44'5 5.0
2014-Oct-21 12:33N 35°24' E 139°39'0 0.0
2014-Oct-21 11:33N 35°24' E 139°39'0 0.1
2014-Oct-21 10:33N 35°24' E 139°39'0 0.1
2014-Oct-21 09:30N 35°24' E 139°39'0 0.0
2014-Oct-21 08:30N 35°24' E 139°39'0 0.0
2014-Oct-21 07:33N 35°24' E 139°39'0 0.0
2014-Oct-21 06:27N 35°24' E 139°39'0 0.0
2014-Oct-21 05:30N 35°24' E 139°39'0 0.1
2014-Oct-21 04:33N 35°24' E 139°38'1 1.3
2014-Oct-21 03:31N 35°24' E 139°40'0 0.0
2014-Oct-21 02:31N 35°24' E 139°40'0 0.0
2014-Oct-21 01:31N 35°24' E 139°40'0 0.0
2014-Oct-21 00:31N 35°24' E 139°40'0 0.0
2014-Oct-20 23:31N 35°24' E 139°40'0 0.0
2014-Oct-20 22:31N 35°24' E 139°40'2 1.7
2014-Oct-20 21:33N 35°23' E 139°41'2 2.1
2014-Oct-20 20:32N 35°22' E 139°44'0 0.0
2014-Oct-20 19:32N 35°22' E 139°44'0 0.1
2014-Oct-20 18:32N 35°22' E 139°44'0 0.0
2014-Oct-20 17:32N 35°22' E 139°44'0 0.0
2014-Oct-20 16:32N 35°22' E 139°44'0 0.1
2014-Oct-20 15:32N 35°22' E 139°44'0 0.0
2014-Oct-20 14:32N 35°23' E 139°44'0 0.0
2014-Oct-20 13:32N 35°23' E 139°44'5 4.9
2014-Oct-20 12:33N 35°24' E 139°39'0 0.0
2014-Oct-20 11:31N 35°24' E 139°39'0 0.1
2014-Oct-20 10:31N 35°24' E 139°39'0 0.1
2014-Oct-20 09:31N 35°24' E 139°39'0 0.0
2014-Oct-20 08:31N 35°24' E 139°39'0 0.0
2014-Oct-20 07:31N 35°24' E 139°39'0 0.0
2014-Oct-20 06:29N 35°24' E 139°39'0 0.0
2014-Oct-20 05:31N 35°24' E 139°39'1 1.2
2014-Oct-20 04:33N 35°24' E 139°40'0 0.0
2014-Oct-20 03:28N 35°24' E 139°40'0 0.0
2014-Oct-20 02:31N 35°24' E 139°40'0 0.0
2014-Oct-20 01:31N 35°24' E 139°40'0 0.0
2014-Oct-20 00:31N 35°24' E 139°40'0 0.0
2014-Oct-19 23:31N 35°24' E 139°40'0 0.0
2014-Oct-19 22:31N 35°24' E 139°40'1 1.3
2014-Oct-19 21:34N 35°23' E 139°41'3 2.6
2014-Oct-19 20:31N 35°22' E 139°44'0 0.0
2014-Oct-19 19:31N 35°22' E 139°44'0 0.0
2014-Oct-19 18:31N 35°22' E 139°44'0 0.0
2014-Oct-19 17:31N 35°22' E 139°44'0 0.0
2014-Oct-19 16:31N 35°22' E 139°44'0 0.1
2014-Oct-19 15:31N 35°22' E 139°44'0 0.1
2014-Oct-19 14:31N 35°22' E 139°44'0 0.0
2014-Oct-19 13:28N 35°22' E 139°44'0 0.1
2014-Oct-19 12:31N 35°22' E 139°44'0 0.1
2014-Oct-19 11:31N 35°22' E 139°44'1 0.5
2014-Oct-19 10:33N 35°22' E 139°43'4 4.1
2014-Oct-19 09:32N 35°24' E 139°39'0 0.0
2014-Oct-19 08:32N 35°24' E 139°39'0 0.0
2014-Oct-19 07:32N 35°24' E 139°39'0 0.0
2014-Oct-19 06:32N 35°24' E 139°39'0 0.0
2014-Oct-19 05:32N 35°24' E 139°39'0 0.1
2014-Oct-19 04:33N 35°24' E 139°38'1 1.2
2014-Oct-19 03:32N 35°24' E 139°40'0 0.0
2014-Oct-19 02:32N 35°24' E 139°40'0 0.0
2014-Oct-19 01:32N 35°24' E 139°40'0 0.0
2014-Oct-19 00:32N 35°24' E 139°40'0 0.0
2014-Oct-18 23:32N 35°24' E 139°40'0 0.0
2014-Oct-18 22:29N 35°24' E 139°40'1 1.5
2014-Oct-18 21:33N 35°23' E 139°41'2 2.4
2014-Oct-18 20:33N 35°23' E 139°44'0 0.0
2014-Oct-18 19:33N 35°23' E 139°44'0 0.0
2014-Oct-18 18:33N 35°23' E 139°44'0 0.0
2014-Oct-18 17:33N 35°23' E 139°44'0 0.0
2014-Oct-18 16:33N 35°23' E 139°44'0 0.1
2014-Oct-18 15:33N 35°23' E 139°44'0 0.0
2014-Oct-18 14:33N 35°23' E 139°44'0 0.1
2014-Oct-18 13:33N 35°23' E 139°44'0 0.1
2014-Oct-18 12:33N 35°23' E 139°44'0 0.0
2014-Oct-18 11:33N 35°23' E 139°44'4 3.8
2014-Oct-18 10:33N 35°24' E 139°40'1 0.9
2014-Oct-18 09:32N 35°24' E 139°39'0 0.0
2014-Oct-18 08:32N 35°24' E 139°39'0 0.0
2014-Oct-18 07:29N 35°24' E 139°39'0 0.0
2014-Oct-18 06:32N 35°24' E 139°39'0 0.0
2014-Oct-18 05:32N 35°24' E 139°39'0 0.0
2014-Oct-18 04:33N 35°24' E 139°39'1 1.1
2014-Oct-18 03:31N 35°24' E 139°40'0 0.0
2014-Oct-18 02:31N 35°24' E 139°40'0 0.0
2014-Oct-18 01:31N 35°24' E 139°40'0 0.0
2014-Oct-18 00:31N 35°24' E 139°40'0 0.0
2014-Oct-17 23:31N 35°24' E 139°40'0 0.0
2014-Oct-17 22:31N 35°24' E 139°40'1 1.2
2014-Oct-17 21:34N 35°23' E 139°40'3 3.0
2014-Oct-17 20:32N 35°22' E 139°44'0 0.1
2014-Oct-17 19:32N 35°22' E 139°44'0 0.0
2014-Oct-17 18:32N 35°22' E 139°44'0 0.0
2014-Oct-17 17:33N 35°22' E 139°44'0 0.0
2014-Oct-17 16:33N 35°22' E 139°44'0 0.0
2014-Oct-17 15:32N 35°22' E 139°44'0 0.0
2014-Oct-17 14:33N 35°22' E 139°44'0 0.0
2014-Oct-17 13:32N 35°22' E 139°44'5 4.9
2014-Oct-17 12:33N 35°24' E 139°39'0 0.0
2014-Oct-17 11:31N 35°24' E 139°39'0 0.0
2014-Oct-17 10:31N 35°24' E 139°39'0 0.1
2014-Oct-17 09:28N 35°24' E 139°39'0 0.0
2014-Oct-17 08:31N 35°24' E 139°39'0 0.0
2014-Oct-17 07:31N 35°24' E 139°39'0 0.0
2014-Oct-17 06:31N 35°24' E 139°39'0 0.0
2014-Oct-17 05:31N 35°24' E 139°39'0 0.0
2014-Oct-17 04:33N 35°24' E 139°39'1 1.2
2014-Oct-17 03:33N 35°24' E 139°40'0 0.0
2014-Oct-17 02:33N 35°24' E 139°40'0 0.0
2014-Oct-17 01:33N 35°24' E 139°40'0 0.0
2014-Oct-17 00:33N 35°24' E 139°40'0 0.0
2014-Oct-16 23:33N 35°24' E 139°40'0 0.0
2014-Oct-16 22:33N 35°24' E 139°40'1 1.3
2014-Oct-16 21:33N 35°23' E 139°41'3 2.8
2014-Oct-16 20:33N 35°23' E 139°44'0 0.0
2014-Oct-16 19:33N 35°23' E 139°44'0 0.0
2014-Oct-16 18:33N 35°23' E 139°44'0 0.0
2014-Oct-16 17:33N 35°23' E 139°44'0 0.0
2014-Oct-16 16:33N 35°23' E 139°44'0 0.1
2014-Oct-16 15:33N 35°23' E 139°45'0 0.0
2014-Oct-16 14:33N 35°23' E 139°45'0 0.1
2014-Oct-16 13:33N 35°23' E 139°45'2 1.8
2014-Oct-16 12:34N 35°23' E 139°42'4 3.4
2014-Oct-16 11:31N 35°24' E 139°39'0 0.1
2014-Oct-16 10:31N 35°24' E 139°39'0 0.1
2014-Oct-16 09:31N 35°24' E 139°39'0 0.0
2014-Oct-16 08:31N 35°24' E 139°39'0 0.0
2014-Oct-16 07:31N 35°24' E 139°39'0 0.0
2014-Oct-16 06:31N 35°24' E 139°39'0 0.0
2014-Oct-16 05:31N 35°24' E 139°39'0 0.0
2014-Oct-16 04:33N 35°24' E 139°39'1 1.1
2014-Oct-16 03:26N 35°24' E 139°40'0 0.0
2014-Oct-16 02:32N 35°24' E 139°40'0 0.0
2014-Oct-16 01:32N 35°24' E 139°40'4 0.5
2014-Oct-15 18:21N 35°23' E 139°44'0 0.0
2014-Oct-15 17:33N 35°23' E 139°44'0 0.0
2014-Oct-15 16:33N 35°23' E 139°44'0 0.1
2014-Oct-15 15:33N 35°23' E 139°44'5 4.6
2014-Oct-15 14:33N 35°24' E 139°39'0 0.0
2014-Oct-15 13:30N 35°24' E 139°39'0 0.0
2014-Oct-15 12:33N 35°24' E 139°39'0 0.0
2014-Oct-15 11:33N 35°24' E 139°39'0 0.1
2014-Oct-15 10:33N 35°24' E 139°39'0 0.1
2014-Oct-15 09:33N 35°24' E 139°39'0 0.0
2014-Oct-15 08:33N 35°24' E 139°39'0 0.0
2014-Oct-15 07:33N 35°24' E 139°39'0 0.0
2014-Oct-15 06:33N 35°24' E 139°39'0 0.0
2014-Oct-15 05:33N 35°24' E 139°39'2 1.5
2014-Oct-15 04:34N 35°23' E 139°40'8 8.4
2014-Oct-15 03:33N 35°26' E 139°50'0 0.1
2014-Oct-15 02:28N 35°26' E 139°50'0 0.0
2014-Oct-15 01:34N 35°26' E 139°50'0 0.0
2014-Oct-15 00:22N 35°26' E 139°50'0 0.0
2014-Oct-14 23:34N 35°26' E 139°50'0 0.0
2014-Oct-14 22:28N 35°26' E 139°50'0 0.0
2014-Oct-14 21:34N 35°26' E 139°50'0 0.0
2014-Oct-14 20:31N 35°26' E 139°50'0 0.0
2014-Oct-14 19:28N 35°26' E 139°50'0 0.0
2014-Oct-14 18:28N 35°26' E 139°50'0 0.0
2014-Oct-14 16:04N 35°26' E 139°50'0 0.1
2014-Oct-14 15:34N 35°26' E 139°50'0 0.0
2014-Oct-14 14:31N 35°26' E 139°50'0 0.0
2014-Oct-14 13:28N 35°26' E 139°50'  
Track history (hours):
 
Tides and Currents Weather Stations Pressure Air Temp Water Temp Dewpoint Dewpoint Depression Visibility Wind Speed Wind Dir Waves Ship Positions

Jp Tsubaki

Last reported at 2014-Oct-24 12:33 UTC. Time now 2014-Oct-24 12:53 UTC.
Position N 35°23' E 139°41'.

Length 115 m; draft 6.5 m.

Type: Cargo ship. MMSI: 431000734.

Date/timePositionNaut miles runAvg speedWind from/ knotsBaromVisibWave heightAir tempDewpointWater temp
2014-Oct-24 12:33N 35°23' E 139°41'8 7.9
2014-Oct-24 11:33N 35°30' E 139°46'2 2.3
2014-Oct-24 10:31N 35°30' E 139°43'0 0.0
2014-Oct-24 09:31N 35°30' E 139°43'0 0.0
2014-Oct-24 08:28N 35°30' E 139°43'0 0.0
2014-Oct-24 07:31N 35°30' E 139°43'0 0.0
2014-Oct-24 06:31N 35°30' E 139°43'0 0.0
2014-Oct-24 05:31N 35°30' E 139°43'0 0.0
2014-Oct-24 04:31N 35°30' E 139°43'0 0.0
2014-Oct-24 03:31N 35°30' E 139°43'0 0.0
2014-Oct-24 02:31N 35°30' E 139°43'0 0.0
2014-Oct-24 01:31N 35°30' E 139°43'0 0.0
2014-Oct-24 00:31N 35°30' E 139°43'0 0.0
2014-Oct-23 23:31N 35°30' E 139°43'3 2.7
2014-Oct-23 22:34N 35°27' E 139°43'5 5.2
2014-Oct-23 21:32N 35°22' E 139°44'0 0.0
2014-Oct-23 20:32N 35°22' E 139°44'0 0.0
2014-Oct-23 19:32N 35°22' E 139°44'0 0.0
2014-Oct-23 18:29N 35°22' E 139°44'0 0.0
2014-Oct-23 17:32N 35°22' E 139°44'0 0.0
2014-Oct-23 16:32N 35°22' E 139°44'0 0.0
2014-Oct-23 15:29N 35°22' E 139°44'0 0.0
2014-Oct-23 14:29N 35°22' E 139°44'0 0.0
2014-Oct-23 13:32N 35°22' E 139°44'5 5.0
2014-Oct-23 12:33N 35°24' E 139°39'0 0.1
2014-Oct-23 11:32N 35°24' E 139°39'0 0.0
2014-Oct-23 10:32N 35°24' E 139°39'0 0.0
2014-Oct-23 09:32N 35°24' E 139°39'0 0.0
2014-Oct-23 08:32N 35°24' E 139°39'0 0.0
2014-Oct-23 07:32N 35°24' E 139°39'0 0.0
2014-Oct-23 06:32N 35°24' E 139°39'0 0.0
2014-Oct-23 05:32N 35°24' E 139°39'1 1.2
2014-Oct-23 04:33N 35°24' E 139°40'0 0.0
2014-Oct-23 03:33N 35°24' E 139°40'0 0.0
2014-Oct-23 02:33N 35°24' E 139°40'0 0.0
2014-Oct-23 01:33N 35°24' E 139°40'0 0.0
2014-Oct-23 00:33N 35°24' E 139°40'0 0.0
2014-Oct-22 23:33N 35°24' E 139°40'0 0.0
2014-Oct-22 22:33N 35°24' E 139°40'2 1.6
2014-Oct-22 21:33N 35°23' E 139°41'2 2.3
2014-Oct-22 20:33N 35°22' E 139°44'0 0.0
2014-Oct-22 19:30N 35°22' E 139°44'0 0.0
2014-Oct-22 18:33N 35°22' E 139°44'0 0.0
2014-Oct-22 17:33N 35°22' E 139°44'0 0.0
2014-Oct-22 16:33N 35°22' E 139°44'0 0.0
2014-Oct-22 15:33N 35°22' E 139°44'0 0.0
2014-Oct-22 14:33N 35°22' E 139°44'0 0.0
2014-Oct-22 13:33N 35°22' E 139°44'5 4.8
2014-Oct-22 12:34N 35°24' E 139°39'0 0.0
2014-Oct-22 11:32N 35°24' E 139°39'0 0.0
2014-Oct-22 10:32N 35°24' E 139°39'0 0.0
2014-Oct-22 09:32N 35°24' E 139°39'0 0.0
2014-Oct-22 08:32N 35°24' E 139°39'0 0.0
2014-Oct-22 07:32N 35°24' E 139°39'0 0.0
2014-Oct-22 06:32N 35°24' E 139°39'0 0.0
2014-Oct-22 05:26N 35°24' E 139°39'0 0.1
2014-Oct-22 04:33N 35°24' E 139°38'1 1.2
2014-Oct-22 03:32N 35°24' E 139°40'0 0.0
2014-Oct-22 02:32N 35°24' E 139°40'0 0.0
2014-Oct-22 01:32N 35°24' E 139°40'0 0.0
2014-Oct-22 00:32N 35°24' E 139°40'0 0.0
2014-Oct-21 23:32N 35°24' E 139°40'0 0.0
2014-Oct-21 22:32N 35°24' E 139°40'1 1.4
2014-Oct-21 21:33N 35°23' E 139°41'3 2.6
2014-Oct-21 20:32N 35°22' E 139°44'0 0.0
2014-Oct-21 19:32N 35°22' E 139°44'0 0.0
2014-Oct-21 18:32N 35°22' E 139°44'0 0.0
2014-Oct-21 17:32N 35°22' E 139°44'0 0.0
2014-Oct-21 16:32N 35°22' E 139°44'0 0.1
2014-Oct-21 15:32N 35°22' E 139°44'0 0.0
2014-Oct-21 14:32N 35°22' E 139°44'0 0.0
2014-Oct-21 13:32N 35°22' E 139°44'5 5.0
2014-Oct-21 12:33N 35°24' E 139°39'0 0.0
2014-Oct-21 11:33N 35°24' E 139°39'0 0.1
2014-Oct-21 10:33N 35°24' E 139°39'0 0.1
2014-Oct-21 09:30N 35°24' E 139°39'0 0.0
2014-Oct-21 08:30N 35°24' E 139°39'0 0.0
2014-Oct-21 07:33N 35°24' E 139°39'0 0.0
2014-Oct-21 06:27N 35°24' E 139°39'0 0.0
2014-Oct-21 05:30N 35°24' E 139°39'0 0.1
2014-Oct-21 04:33N 35°24' E 139°38'1 1.3
2014-Oct-21 03:31N 35°24' E 139°40'0 0.0
2014-Oct-21 02:31N 35°24' E 139°40'0 0.0
2014-Oct-21 01:31N 35°24' E 139°40'0 0.0
2014-Oct-21 00:31N 35°24' E 139°40'0 0.0
2014-Oct-20 23:31N 35°24' E 139°40'0 0.0
2014-Oct-20 22:31N 35°24' E 139°40'2 1.7
2014-Oct-20 21:33N 35°23' E 139°41'2 2.1
2014-Oct-20 20:32N 35°22' E 139°44'0 0.0
2014-Oct-20 19:32N 35°22' E 139°44'0 0.1
2014-Oct-20 18:32N 35°22' E 139°44'0 0.0
2014-Oct-20 17:32N 35°22' E 139°44'0 0.0
2014-Oct-20 16:32N 35°22' E 139°44'0 0.1
2014-Oct-20 15:32N 35°22' E 139°44'0 0.0
2014-Oct-20 14:32N 35°23' E 139°44'0 0.0
2014-Oct-20 13:32N 35°23' E 139°44'5 4.9
2014-Oct-20 12:33N 35°24' E 139°39'0 0.0
2014-Oct-20 11:31N 35°24' E 139°39'0 0.1
2014-Oct-20 10:31N 35°24' E 139°39'0 0.1
2014-Oct-20 09:31N 35°24' E 139°39'0 0.0
2014-Oct-20 08:31N 35°24' E 139°39'0 0.0
2014-Oct-20 07:31N 35°24' E 139°39'0 0.0
2014-Oct-20 06:29N 35°24' E 139°39'0 0.0
2014-Oct-20 05:31N 35°24' E 139°39'1 1.2
2014-Oct-20 04:33N 35°24' E 139°40'0 0.0
2014-Oct-20 03:28N 35°24' E 139°40'0 0.0
2014-Oct-20 02:31N 35°24' E 139°40'0 0.0
2014-Oct-20 01:31N 35°24' E 139°40'0 0.0
2014-Oct-20 00:31N 35°24' E 139°40'0 0.0
2014-Oct-19 23:31N 35°24' E 139°40'0 0.0
2014-Oct-19 22:31N 35°24' E 139°40'1 1.3
2014-Oct-19 21:34N 35°23' E 139°41'3 2.6
2014-Oct-19 20:31N 35°22' E 139°44'0 0.0
2014-Oct-19 19:31N 35°22' E 139°44'0 0.0
2014-Oct-19 18:31N 35°22' E 139°44'0 0.0
2014-Oct-19 17:31N 35°22' E 139°44'0 0.0
2014-Oct-19 16:31N 35°22' E 139°44'0 0.1
2014-Oct-19 15:31N 35°22' E 139°44'0 0.1
2014-Oct-19 14:31N 35°22' E 139°44'0 0.0
2014-Oct-19 13:28N 35°22' E 139°44'0 0.1
2014-Oct-19 12:31N 35°22' E 139°44'0 0.1
2014-Oct-19 11:31N 35°22' E 139°44'1 0.5
2014-Oct-19 10:33N 35°22' E 139°43'4 4.1
2014-Oct-19 09:32N 35°24' E 139°39'0 0.0
2014-Oct-19 08:32N 35°24' E 139°39'0 0.0
2014-Oct-19 07:32N 35°24' E 139°39'0 0.0
2014-Oct-19 06:32N 35°24' E 139°39'0 0.0
2014-Oct-19 05:32N 35°24' E 139°39'0 0.1
2014-Oct-19 04:33N 35°24' E 139°38'1 1.2
2014-Oct-19 03:32N 35°24' E 139°40'0 0.0
2014-Oct-19 02:32N 35°24' E 139°40'0 0.0
2014-Oct-19 01:32N 35°24' E 139°40'0 0.0
2014-Oct-19 00:32N 35°24' E 139°40'0 0.0
2014-Oct-18 23:32N 35°24' E 139°40'0 0.0
2014-Oct-18 22:29N 35°24' E 139°40'1 1.5
2014-Oct-18 21:33N 35°23' E 139°41'2 2.4
2014-Oct-18 20:33N 35°23' E 139°44'0 0.0
2014-Oct-18 19:33N 35°23' E 139°44'0 0.0
2014-Oct-18 18:33N 35°23' E 139°44'0 0.0
2014-Oct-18 17:33N 35°23' E 139°44'0 0.0
2014-Oct-18 16:33N 35°23' E 139°44'0 0.1
2014-Oct-18 15:33N 35°23' E 139°44'0 0.0
2014-Oct-18 14:33N 35°23' E 139°44'0 0.1
2014-Oct-18 13:33N 35°23' E 139°44'0 0.1
2014-Oct-18 12:33N 35°23' E 139°44'0 0.0
2014-Oct-18 11:33N 35°23' E 139°44'4 3.8
2014-Oct-18 10:33N 35°24' E 139°40'1 0.9
2014-Oct-18 09:32N 35°24' E 139°39'0 0.0
2014-Oct-18 08:32N 35°24' E 139°39'0 0.0
2014-Oct-18 07:29N 35°24' E 139°39'0 0.0
2014-Oct-18 06:32N 35°24' E 139°39'0 0.0
2014-Oct-18 05:32N 35°24' E 139°39'0 0.0
2014-Oct-18 04:33N 35°24' E 139°39'1 1.1
2014-Oct-18 03:31N 35°24' E 139°40'0 0.0
2014-Oct-18 02:31N 35°24' E 139°40'0 0.0
2014-Oct-18 01:31N 35°24' E 139°40'0 0.0
2014-Oct-18 00:31N 35°24' E 139°40'0 0.0
2014-Oct-17 23:31N 35°24' E 139°40'0 0.0
2014-Oct-17 22:31N 35°24' E 139°40'1 1.2
2014-Oct-17 21:34N 35°23' E 139°40'3 3.0
2014-Oct-17 20:32N 35°22' E 139°44'0 0.1
2014-Oct-17 19:32N 35°22' E 139°44'0 0.0
2014-Oct-17 18:32N 35°22' E 139°44'0 0.0
2014-Oct-17 17:33N 35°22' E 139°44'0 0.0
2014-Oct-17 16:33N 35°22' E 139°44'0 0.0
2014-Oct-17 15:32N 35°22' E 139°44'0 0.0
2014-Oct-17 14:33N 35°22' E 139°44'0 0.0
2014-Oct-17 13:32N 35°22' E 139°44'5 4.9
2014-Oct-17 12:33N 35°24' E 139°39'0 0.0
2014-Oct-17 11:31N 35°24' E 139°39'0 0.0
2014-Oct-17 10:31N 35°24' E 139°39'0 0.1
2014-Oct-17 09:28N 35°24' E 139°39'0 0.0
2014-Oct-17 08:31N 35°24' E 139°39'0 0.0
2014-Oct-17 07:31N 35°24' E 139°39'0 0.0
2014-Oct-17 06:31N 35°24' E 139°39'0 0.0
2014-Oct-17 05:31N 35°24' E 139°39'0 0.0
2014-Oct-17 04:33N 35°24' E 139°39'1 1.2
2014-Oct-17 03:33N 35°24' E 139°40'0 0.0
2014-Oct-17 02:33N 35°24' E 139°40'0 0.0
2014-Oct-17 01:33N 35°24' E 139°40'0 0.0
2014-Oct-17 00:33N 35°24' E 139°40'0 0.0
2014-Oct-16 23:33N 35°24' E 139°40'0 0.0
2014-Oct-16 22:33N 35°24' E 139°40'1 1.3
2014-Oct-16 21:33N 35°23' E 139°41'3 2.8
2014-Oct-16 20:33N 35°23' E 139°44'0 0.0
2014-Oct-16 19:33N 35°23' E 139°44'0 0.0
2014-Oct-16 18:33N 35°23' E 139°44'0 0.0
2014-Oct-16 17:33N 35°23' E 139°44'0 0.0
2014-Oct-16 16:33N 35°23' E 139°44'0 0.1
2014-Oct-16 15:33N 35°23' E 139°45'0 0.0
2014-Oct-16 14:33N 35°23' E 139°45'0 0.1
2014-Oct-16 13:33N 35°23' E 139°45'2 1.8
2014-Oct-16 12:34N 35°23' E 139°42'4 3.4
2014-Oct-16 11:31N 35°24' E 139°39'0 0.1
2014-Oct-16 10:31N 35°24' E 139°39'0 0.1
2014-Oct-16 09:31N 35°24' E 139°39'0 0.0
2014-Oct-16 08:31N 35°24' E 139°39'0 0.0
2014-Oct-16 07:31N 35°24' E 139°39'0 0.0
2014-Oct-16 06:31N 35°24' E 139°39'0 0.0
2014-Oct-16 05:31N 35°24' E 139°39'0 0.0
2014-Oct-16 04:33N 35°24' E 139°39'1 1.1
2014-Oct-16 03:26N 35°24' E 139°40'0 0.0
2014-Oct-16 02:32N 35°24' E 139°40'0 0.0
2014-Oct-16 01:32N 35°24' E 139°40'4 0.5
2014-Oct-15 18:21N 35°23' E 139°44'0 0.0
2014-Oct-15 17:33N 35°23' E 139°44'0 0.0
2014-Oct-15 16:33N 35°23' E 139°44'0 0.1
2014-Oct-15 15:33N 35°23' E 139°44'5 4.6
2014-Oct-15 14:33N 35°24' E 139°39'0 0.0
2014-Oct-15 13:30N 35°24' E 139°39'0 0.0
2014-Oct-15 12:33N 35°24' E 139°39'0 0.0
2014-Oct-15 11:33N 35°24' E 139°39'0 0.1
2014-Oct-15 10:33N 35°24' E 139°39'0 0.1
2014-Oct-15 09:33N 35°24' E 139°39'0 0.0
2014-Oct-15 08:33N 35°24' E 139°39'0 0.0
2014-Oct-15 07:33N 35°24' E 139°39'0 0.0
2014-Oct-15 06:33N 35°24' E 139°39'0 0.0
2014-Oct-15 05:33N 35°24' E 139°39'2 1.5
2014-Oct-15 04:34N 35°23' E 139°40'8 8.4
2014-Oct-15 03:33N 35°26' E 139°50'0 0.1
2014-Oct-15 02:28N 35°26' E 139°50'0 0.0
2014-Oct-15 01:34N 35°26' E 139°50'0 0.0
2014-Oct-15 00:22N 35°26' E 139°50'0 0.0
2014-Oct-14 23:34N 35°26' E 139°50'0 0.0
2014-Oct-14 22:28N 35°26' E 139°50'0 0.0
2014-Oct-14 21:34N 35°26' E 139°50'0 0.0
2014-Oct-14 20:31N 35°26' E 139°50'0 0.0
2014-Oct-14 19:28N 35°26' E 139°50'0 0.0
2014-Oct-14 18:28N 35°26' E 139°50'0 0.0
2014-Oct-14 16:04N 35°26' E 139°50'0 0.1
2014-Oct-14 15:34N 35°26' E 139°50'0 0.0
2014-Oct-14 14:31N 35°26' E 139°50'0 0.0
2014-Oct-14 13:28N 35°26' E 139°50'  

Dump ship's entire track history